sensor_id;sensor_type;location;lat;lon;timestamp;P1;durP1;ratioP1;P2;durP2;ratioP2
8421;SDS011;4248;48.196;10.924;2024-03-23T00:54:14;4.17;;;2.57;;
8421;SDS011;4248;48.196;10.924;2024-03-23T00:56:40;7.10;;;2.77;;
8421;SDS011;4248;48.196;10.924;2024-03-23T00:59:06;5.43;;;2.50;;
8421;SDS011;4248;48.196;10.924;2024-03-23T01:01:32;6.23;;;3.73;;
8421;SDS011;4248;48.196;10.924;2024-03-23T01:03:58;5.67;;;2.77;;
8421;SDS011;4248;48.196;10.924;2024-03-23T01:06:24;9.67;;;2.60;;
8421;SDS011;4248;48.196;10.924;2024-03-23T01:08:50;7.87;;;3.30;;
8421;SDS011;4248;48.196;10.924;2024-03-23T01:11:17;5.47;;;3.30;;
8421;SDS011;4248;48.196;10.924;2024-03-23T01:13:43;3.70;;;2.57;;
8421;SDS011;4248;48.196;10.924;2024-03-23T01:16:09;7.03;;;3.13;;
8421;SDS011;4248;48.196;10.924;2024-03-23T01:18:35;5.67;;;2.57;;
8421;SDS011;4248;48.196;10.924;2024-03-23T01:21:01;4.20;;;2.60;;
8421;SDS011;4248;48.196;10.924;2024-03-23T01:23:27;4.57;;;2.47;;
8421;SDS011;4248;48.196;10.924;2024-03-23T01:25:53;5.00;;;3.00;;
8421;SDS011;4248;48.196;10.924;2024-03-23T01:28:19;4.33;;;2.20;;
8421;SDS011;4248;48.196;10.924;2024-03-23T01:30:45;5.27;;;2.40;;
8421;SDS011;4248;48.196;10.924;2024-03-23T01:33:11;4.33;;;2.70;;
8421;SDS011;4248;48.196;10.924;2024-03-23T01:35:37;4.50;;;2.83;;
8421;SDS011;4248;48.196;10.924;2024-03-23T01:38:03;5.57;;;2.40;;
8421;SDS011;4248;48.196;10.924;2024-03-23T01:40:29;6.20;;;2.97;;
8421;SDS011;4248;48.196;10.924;2024-03-23T01:42:57;4.20;;;2.43;;
8421;SDS011;4248;48.196;10.924;2024-03-23T01:45:24;5.40;;;3.03;;
8421;SDS011;4248;48.196;10.924;2024-03-23T01:47:51;10.77;;;3.03;;
8421;SDS011;4248;48.196;10.924;2024-03-23T01:50:17;9.73;;;3.20;;
8421;SDS011;4248;48.196;10.924;2024-03-23T01:52:43;5.97;;;2.77;;
8421;SDS011;4248;48.196;10.924;2024-03-23T01:55:09;5.70;;;2.67;;
8421;SDS011;4248;48.196;10.924;2024-03-23T01:57:35;6.30;;;2.80;;
8421;SDS011;4248;48.196;10.924;2024-03-23T02:00:01;4.70;;;2.90;;
8421;SDS011;4248;48.196;10.924;2024-03-23T02:02:27;4.70;;;2.67;;
8421;SDS011;4248;48.196;10.924;2024-03-23T02:04:53;9.03;;;3.10;;
8421;SDS011;4248;48.196;10.924;2024-03-23T02:07:19;4.33;;;2.50;;
8421;SDS011;4248;48.196;10.924;2024-03-23T02:09:45;5.07;;;2.87;;
8421;SDS011;4248;48.196;10.924;2024-03-23T02:12:11;4.43;;;2.27;;
8421;SDS011;4248;48.196;10.924;2024-03-23T02:14:37;6.10;;;2.63;;
8421;SDS011;4248;48.196;10.924;2024-03-23T02:17:03;4.93;;;2.93;;
8421;SDS011;4248;48.196;10.924;2024-03-23T02:19:29;4.50;;;2.93;;
8421;SDS011;4248;48.196;10.924;2024-03-23T02:21:54;4.83;;;2.90;;
8421;SDS011;4248;48.196;10.924;2024-03-23T02:24:20;5.37;;;2.63;;
8421;SDS011;4248;48.196;10.924;2024-03-23T02:26:46;5.00;;;2.77;;
8421;SDS011;4248;48.196;10.924;2024-03-23T02:29:13;5.60;;;3.27;;
8421;SDS011;4248;48.196;10.924;2024-03-23T02:31:39;7.23;;;2.80;;
8421;SDS011;4248;48.196;10.924;2024-03-23T02:34:05;4.00;;;2.90;;
8421;SDS011;4248;48.196;10.924;2024-03-23T02:36:31;10.43;;;2.63;;
8421;SDS011;4248;48.196;10.924;2024-03-23T02:38:57;3.70;;;2.80;;
8421;SDS011;4248;48.196;10.924;2024-03-23T02:41:23;8.80;;;3.27;;
8421;SDS011;4248;48.196;10.924;2024-03-23T02:43:49;5.13;;;2.80;;
8421;SDS011;4248;48.196;10.924;2024-03-23T02:46:15;8.90;;;3.40;;
8421;SDS011;4248;48.196;10.924;2024-03-23T02:48:41;4.00;;;2.57;;
8421;SDS011;4248;48.196;10.924;2024-03-23T02:51:07;5.53;;;2.50;;
8421;SDS011;4248;48.196;10.924;2024-03-23T02:53:33;3.90;;;2.60;;
8421;SDS011;4248;48.196;10.924;2024-03-23T02:55:59;4.50;;;2.60;;
8421;SDS011;4248;48.196;10.924;2024-03-23T02:58:25;4.80;;;3.03;;
8421;SDS011;4248;48.196;10.924;2024-03-23T03:00:51;6.87;;;3.47;;
8421;SDS011;4248;48.196;10.924;2024-03-23T03:03:17;4.33;;;2.97;;
8421;SDS011;4248;48.196;10.924;2024-03-23T03:05:43;8.67;;;3.03;;
8421;SDS011;4248;48.196;10.924;2024-03-23T03:08:09;5.53;;;2.73;;
8421;SDS011;4248;48.196;10.924;2024-03-23T03:10:35;4.20;;;2.90;;
8421;SDS011;4248;48.196;10.924;2024-03-23T03:13:01;3.80;;;2.50;;
8421;SDS011;4248;48.196;10.924;2024-03-23T03:15:27;5.30;;;3.00;;
8421;SDS011;4248;48.196;10.924;2024-03-23T03:17:53;4.60;;;2.73;;
8421;SDS011;4248;48.196;10.924;2024-03-23T03:20:19;4.20;;;2.70;;
8421;SDS011;4248;48.196;10.924;2024-03-23T03:22:46;4.53;;;2.80;;
8421;SDS011;4248;48.196;10.924;2024-03-23T03:25:12;3.60;;;2.43;;
8421;SDS011;4248;48.196;10.924;2024-03-23T03:27:38;4.67;;;2.83;;
8421;SDS011;4248;48.196;10.924;2024-03-23T03:30:04;5.07;;;2.67;;
8421;SDS011;4248;48.196;10.924;2024-03-23T03:32:32;5.07;;;2.60;;
8421;SDS011;4248;48.196;10.924;2024-03-23T03:34:58;4.80;;;2.60;;
8421;SDS011;4248;48.196;10.924;2024-03-23T03:37:24;4.70;;;2.97;;
8421;SDS011;4248;48.196;10.924;2024-03-23T03:39:50;5.73;;;2.90;;
8421;SDS011;4248;48.196;10.924;2024-03-23T03:42:16;4.80;;;2.50;;
8421;SDS011;4248;48.196;10.924;2024-03-23T03:44:42;8.87;;;2.37;;
8421;SDS011;4248;48.196;10.924;2024-03-23T03:47:08;6.10;;;2.70;;
8421;SDS011;4248;48.196;10.924;2024-03-23T03:49:34;4.57;;;2.13;;
8421;SDS011;4248;48.196;10.924;2024-03-23T03:52:00;3.90;;;2.00;;
8421;SDS011;4248;48.196;10.924;2024-03-23T03:54:27;7.37;;;2.50;;
8421;SDS011;4248;48.196;10.924;2024-03-23T03:56:52;5.97;;;2.77;;
8421;SDS011;4248;48.196;10.924;2024-03-23T03:59:18;4.87;;;2.30;;
8421;SDS011;4248;48.196;10.924;2024-03-23T04:01:45;3.60;;;2.30;;
8421;SDS011;4248;48.196;10.924;2024-03-23T04:04:11;4.10;;;2.40;;
8421;SDS011;4248;48.196;10.924;2024-03-23T04:06:37;3.10;;;2.00;;
8421;SDS011;4248;48.196;10.924;2024-03-23T04:09:03;3.63;;;2.13;;
8421;SDS011;4248;48.196;10.924;2024-03-23T04:11:29;3.70;;;2.10;;
8421;SDS011;4248;48.196;10.924;2024-03-23T04:13:55;3.50;;;2.27;;
8421;SDS011;4248;48.196;10.924;2024-03-23T04:16:26;4.60;;;2.63;;
8421;SDS011;4248;48.196;10.924;2024-03-23T04:18:52;8.13;;;3.30;;
8421;SDS011;4248;48.196;10.924;2024-03-23T04:21:19;8.17;;;2.73;;
8421;SDS011;4248;48.196;10.924;2024-03-23T04:23:44;6.30;;;2.20;;
8421;SDS011;4248;48.196;10.924;2024-03-23T04:26:10;4.50;;;2.53;;
8421;SDS011;4248;48.196;10.924;2024-03-23T04:28:36;6.20;;;2.37;;
8421;SDS011;4248;48.196;10.924;2024-03-23T04:31:05;6.03;;;2.63;;
8421;SDS011;4248;48.196;10.924;2024-03-23T04:33:31;3.60;;;2.13;;
8421;SDS011;4248;48.196;10.924;2024-03-23T04:35:56;3.83;;;2.40;;
8421;SDS011;4248;48.196;10.924;2024-03-23T04:38:22;5.43;;;2.37;;
8421;SDS011;4248;48.196;10.924;2024-03-23T04:40:58;3.63;;;2.10;;
8421;SDS011;4248;48.196;10.924;2024-03-23T04:43:25;3.97;;;2.47;;
8421;SDS011;4248;48.196;10.924;2024-03-23T04:45:51;8.27;;;2.20;;
8421;SDS011;4248;48.196;10.924;2024-03-23T04:48:19;5.10;;;2.47;;
8421;SDS011;4248;48.196;10.924;2024-03-23T04:50:48;3.30;;;2.10;;
8421;SDS011;4248;48.196;10.924;2024-03-23T04:53:14;4.70;;;2.50;;
8421;SDS011;4248;48.196;10.924;2024-03-23T04:55:41;6.03;;;2.63;;
8421;SDS011;4248;48.196;10.924;2024-03-23T04:58:07;4.50;;;2.13;;
8421;SDS011;4248;48.196;10.924;2024-03-23T05:00:32;11.73;;;3.17;;
8421;SDS011;4248;48.196;10.924;2024-03-23T05:02:58;5.43;;;1.83;;
8421;SDS011;4248;48.196;10.924;2024-03-23T05:05:24;3.50;;;2.30;;
8421;SDS011;4248;48.196;10.924;2024-03-23T05:07:50;7.80;;;2.13;;
8421;SDS011;4248;48.196;10.924;2024-03-23T05:10:16;4.33;;;2.03;;
8421;SDS011;4248;48.196;10.924;2024-03-23T05:12:41;6.90;;;2.00;;
8421;SDS011;4248;48.196;10.924;2024-03-23T05:15:07;4.77;;;2.07;;
8421;SDS011;4248;48.196;10.924;2024-03-23T05:17:33;5.87;;;2.70;;
8421;SDS011;4248;48.196;10.924;2024-03-23T05:20:00;6.10;;;2.50;;
8421;SDS011;4248;48.196;10.924;2024-03-23T05:22:26;7.57;;;4.00;;
8421;SDS011;4248;48.196;10.924;2024-03-23T05:24:52;6.83;;;3.70;;
8421;SDS011;4248;48.196;10.924;2024-03-23T05:27:18;6.50;;;4.07;;
8421;SDS011;4248;48.196;10.924;2024-03-23T05:29:44;3.43;;;2.07;;
8421;SDS011;4248;48.196;10.924;2024-03-23T05:32:09;5.17;;;2.27;;
8421;SDS011;4248;48.196;10.924;2024-03-23T05:34:35;6.17;;;2.40;;
8421;SDS011;4248;48.196;10.924;2024-03-23T05:37:01;5.93;;;4.00;;
8421;SDS011;4248;48.196;10.924;2024-03-23T05:39:28;5.17;;;3.07;;
8421;SDS011;4248;48.196;10.924;2024-03-23T05:41:53;15.10;;;8.50;;
8421;SDS011;4248;48.196;10.924;2024-03-23T05:44:19;8.30;;;3.10;;
8421;SDS011;4248;48.196;10.924;2024-03-23T05:46:45;4.10;;;2.40;;
8421;SDS011;4248;48.196;10.924;2024-03-23T05:49:13;5.00;;;2.70;;
8421;SDS011;4248;48.196;10.924;2024-03-23T05:51:40;13.17;;;6.07;;
8421;SDS011;4248;48.196;10.924;2024-03-23T05:54:06;8.00;;;3.97;;
8421;SDS011;4248;48.196;10.924;2024-03-23T05:56:32;14.00;;;6.90;;
8421;SDS011;4248;48.196;10.924;2024-03-23T05:58:58;9.20;;;4.73;;
8421;SDS011;4248;48.196;10.924;2024-03-23T06:01:24;14.50;;;7.37;;
8421;SDS011;4248;48.196;10.924;2024-03-23T06:03:53;12.50;;;5.93;;
8421;SDS011;4248;48.196;10.924;2024-03-23T06:06:19;10.20;;;6.60;;
8421;SDS011;4248;48.196;10.924;2024-03-23T06:08:45;26.77;;;13.00;;
8421;SDS011;4248;48.196;10.924;2024-03-23T06:11:11;31.83;;;8.20;;
8421;SDS011;4248;48.196;10.924;2024-03-23T06:13:37;13.53;;;5.87;;
8421;SDS011;4248;48.196;10.924;2024-03-23T06:16:03;10.30;;;4.63;;
8421;SDS011;4248;48.196;10.924;2024-03-23T06:18:30;11.43;;;5.20;;
8421;SDS011;4248;48.196;10.924;2024-03-23T06:20:56;5.43;;;2.67;;
8421;SDS011;4248;48.196;10.924;2024-03-23T06:23:22;11.80;;;4.90;;
8421;SDS011;4248;48.196;10.924;2024-03-23T06:25:48;17.33;;;7.03;;
8421;SDS011;4248;48.196;10.924;2024-03-23T06:28:14;35.37;;;13.10;;
8421;SDS011;4248;48.196;10.924;2024-03-23T06:30:39;12.33;;;7.33;;
8421;SDS011;4248;48.196;10.924;2024-03-23T06:33:05;7.87;;;4.70;;
8421;SDS011;4248;48.196;10.924;2024-03-23T06:35:31;4.87;;;2.80;;
8421;SDS011;4248;48.196;10.924;2024-03-23T06:37:57;5.63;;;3.10;;
8421;SDS011;4248;48.196;10.924;2024-03-23T06:40:23;5.80;;;2.57;;
8421;SDS011;4248;48.196;10.924;2024-03-23T06:42:49;3.80;;;2.10;;
8421;SDS011;4248;48.196;10.924;2024-03-23T06:45:15;5.80;;;2.40;;
8421;SDS011;4248;48.196;10.924;2024-03-23T06:47:41;4.50;;;2.60;;
8421;SDS011;4248;48.196;10.924;2024-03-23T06:50:07;6.60;;;3.37;;
8421;SDS011;4248;48.196;10.924;2024-03-23T06:52:35;6.40;;;2.90;;
8421;SDS011;4248;48.196;10.924;2024-03-23T06:55:00;3.67;;;1.93;;
8421;SDS011;4248;48.196;10.924;2024-03-23T06:57:29;8.10;;;3.40;;
8421;SDS011;4248;48.196;10.924;2024-03-23T06:59:55;3.30;;;2.00;;
8421;SDS011;4248;48.196;10.924;2024-03-23T07:02:21;4.70;;;2.23;;
8421;SDS011;4248;48.196;10.924;2024-03-23T07:04:50;3.30;;;2.00;;
8421;SDS011;4248;48.196;10.924;2024-03-23T07:07:15;4.00;;;2.13;;
8421;SDS011;4248;48.196;10.924;2024-03-23T07:09:41;10.43;;;2.87;;
8421;SDS011;4248;48.196;10.924;2024-03-23T07:12:07;7.13;;;2.83;;
8421;SDS011;4248;48.196;10.924;2024-03-23T07:14:33;5.90;;;2.90;;
8421;SDS011;4248;48.196;10.924;2024-03-23T07:16:59;6.57;;;2.90;;
8421;SDS011;4248;48.196;10.924;2024-03-23T07:19:25;4.20;;;2.17;;
8421;SDS011;4248;48.196;10.924;2024-03-23T07:21:50;4.77;;;2.40;;
8421;SDS011;4248;48.196;10.924;2024-03-23T07:24:17;6.40;;;2.63;;
8421;SDS011;4248;48.196;10.924;2024-03-23T07:26:42;5.27;;;3.30;;
8421;SDS011;4248;48.196;10.924;2024-03-23T07:29:09;8.37;;;2.93;;
8421;SDS011;4248;48.196;10.924;2024-03-23T07:31:34;7.93;;;2.57;;
8421;SDS011;4248;48.196;10.924;2024-03-23T07:34:00;3.90;;;2.63;;
8421;SDS011;4248;48.196;10.924;2024-03-23T07:36:26;4.47;;;2.67;;
8421;SDS011;4248;48.196;10.924;2024-03-23T07:38:51;6.23;;;2.90;;
8421;SDS011;4248;48.196;10.924;2024-03-23T07:41:18;6.27;;;2.77;;
8421;SDS011;4248;48.196;10.924;2024-03-23T07:43:45;4.60;;;2.93;;
8421;SDS011;4248;48.196;10.924;2024-03-23T07:46:11;5.30;;;2.80;;
8421;SDS011;4248;48.196;10.924;2024-03-23T07:48:37;4.47;;;2.47;;
8421;SDS011;4248;48.196;10.924;2024-03-23T07:51:08;6.70;;;2.50;;
8421;SDS011;4248;48.196;10.924;2024-03-23T07:53:35;6.70;;;2.80;;
8421;SDS011;4248;48.196;10.924;2024-03-23T07:56:08;5.60;;;2.07;;
8421;SDS011;4248;48.196;10.924;2024-03-23T07:58:38;5.20;;;1.87;;
8421;SDS011;4248;48.196;10.924;2024-03-23T08:01:04;3.67;;;2.30;;
8421;SDS011;4248;48.196;10.924;2024-03-23T08:03:34;4.90;;;2.00;;
8421;SDS011;4248;48.196;10.924;2024-03-23T08:06:13;3.23;;;1.80;;
8421;SDS011;4248;48.196;10.924;2024-03-23T08:08:39;4.13;;;1.80;;
8421;SDS011;4248;48.196;10.924;2024-03-23T08:11:06;3.43;;;1.57;;
8421;SDS011;4248;48.196;10.924;2024-03-23T08:13:33;4.40;;;2.00;;
8421;SDS011;4248;48.196;10.924;2024-03-23T08:15:59;4.40;;;2.30;;
8421;SDS011;4248;48.196;10.924;2024-03-23T08:18:26;2.60;;;1.60;;
8421;SDS011;4248;48.196;10.924;2024-03-23T08:21:02;3.10;;;1.90;;
8421;SDS011;4248;48.196;10.924;2024-03-23T08:23:29;3.83;;;2.20;;
8421;SDS011;4248;48.196;10.924;2024-03-23T08:25:59;3.43;;;2.00;;
8421;SDS011;4248;48.196;10.924;2024-03-23T08:28:25;4.37;;;2.30;;
8421;SDS011;4248;48.196;10.924;2024-03-23T08:30:52;4.60;;;2.60;;
8421;SDS011;4248;48.196;10.924;2024-03-23T08:33:19;4.17;;;2.20;;
8421;SDS011;4248;48.196;10.924;2024-03-23T08:35:54;3.70;;;2.00;;
8421;SDS011;4248;48.196;10.924;2024-03-23T08:38:20;3.70;;;2.30;;
8421;SDS011;4248;48.196;10.924;2024-03-23T08:40:46;3.23;;;2.00;;
8421;SDS011;4248;48.196;10.924;2024-03-23T08:43:13;4.60;;;2.20;;
8421;SDS011;4248;48.196;10.924;2024-03-23T08:45:39;8.67;;;2.47;;
8421;SDS011;4248;48.196;10.924;2024-03-23T08:48:05;4.70;;;2.57;;
8421;SDS011;4248;48.196;10.924;2024-03-23T08:50:31;4.00;;;2.37;;
8421;SDS011;4248;48.196;10.924;2024-03-23T08:52:57;4.10;;;2.30;;
8421;SDS011;4248;48.196;10.924;2024-03-23T08:55:22;4.83;;;2.47;;
8421;SDS011;4248;48.196;10.924;2024-03-23T08:57:48;3.53;;;2.20;;
8421;SDS011;4248;48.196;10.924;2024-03-23T09:00:14;4.00;;;2.47;;
8421;SDS011;4248;48.196;10.924;2024-03-23T09:02:40;3.63;;;1.80;;
8421;SDS011;4248;48.196;10.924;2024-03-23T09:05:06;3.03;;;1.73;;
8421;SDS011;4248;48.196;10.924;2024-03-23T09:07:32;4.70;;;2.30;;
8421;SDS011;4248;48.196;10.924;2024-03-23T09:09:58;4.00;;;1.90;;
8421;SDS011;4248;48.196;10.924;2024-03-23T09:12:24;3.43;;;2.10;;
8421;SDS011;4248;48.196;10.924;2024-03-23T09:14:50;3.20;;;1.90;;
8421;SDS011;4248;48.196;10.924;2024-03-23T09:17:18;3.90;;;2.20;;
8421;SDS011;4248;48.196;10.924;2024-03-23T09:19:44;6.10;;;1.60;;
8421;SDS011;4248;48.196;10.924;2024-03-23T09:22:09;8.00;;;2.10;;
8421;SDS011;4248;48.196;10.924;2024-03-23T09:24:35;6.17;;;1.57;;
8421;SDS011;4248;48.196;10.924;2024-03-23T09:27:01;2.23;;;1.43;;
8421;SDS011;4248;48.196;10.924;2024-03-23T09:29:28;2.83;;;1.47;;
8421;SDS011;4248;48.196;10.924;2024-03-23T09:31:54;3.17;;;1.63;;
8421;SDS011;4248;48.196;10.924;2024-03-23T09:34:20;3.53;;;1.47;;
8421;SDS011;4248;48.196;10.924;2024-03-23T09:36:46;2.73;;;1.27;;
8421;SDS011;4248;48.196;10.924;2024-03-23T09:39:12;2.00;;;1.07;;
8421;SDS011;4248;48.196;10.924;2024-03-23T09:41:39;1.70;;;1.00;;
8421;SDS011;4248;48.196;10.924;2024-03-23T09:44:05;2.20;;;1.20;;
8421;SDS011;4248;48.196;10.924;2024-03-23T09:46:31;2.40;;;1.40;;
8421;SDS011;4248;48.196;10.924;2024-03-23T09:49:01;2.20;;;1.30;;
8421;SDS011;4248;48.196;10.924;2024-03-23T09:51:31;2.27;;;1.20;;
8421;SDS011;4248;48.196;10.924;2024-03-23T09:53:57;2.63;;;1.20;;
8421;SDS011;4248;48.196;10.924;2024-03-23T09:56:22;2.40;;;1.33;;
8421;SDS011;4248;48.196;10.924;2024-03-23T09:58:49;4.33;;;1.47;;
8421;SDS011;4248;48.196;10.924;2024-03-23T10:01:14;4.50;;;1.30;;
8421;SDS011;4248;48.196;10.924;2024-03-23T10:03:44;2.40;;;1.20;;
8421;SDS011;4248;48.196;10.924;2024-03-23T10:06:10;3.47;;;1.20;;
8421;SDS011;4248;48.196;10.924;2024-03-23T10:08:36;4.60;;;1.20;;
8421;SDS011;4248;48.196;10.924;2024-03-23T10:11:15;2.00;;;1.07;;
8421;SDS011;4248;48.196;10.924;2024-03-23T10:13:42;2.80;;;1.07;;
8421;SDS011;4248;48.196;10.924;2024-03-23T10:16:08;8.17;;;0.90;;
8421;SDS011;4248;48.196;10.924;2024-03-23T10:18:41;1.40;;;0.73;;
8421;SDS011;4248;48.196;10.924;2024-03-23T10:23:33;1.40;;;0.63;;
8421;SDS011;4248;48.196;10.924;2024-03-23T10:31:32;1.90;;;0.73;;
8421;SDS011;4248;48.196;10.924;2024-03-23T10:33:58;3.20;;;1.20;;
8421;SDS011;4248;48.196;10.924;2024-03-23T10:36:25;1.70;;;0.80;;
8421;SDS011;4248;48.196;10.924;2024-03-23T10:38:52;2.20;;;0.80;;
8421;SDS011;4248;48.196;10.924;2024-03-23T10:41:18;2.43;;;0.87;;
8421;SDS011;4248;48.196;10.924;2024-03-23T10:43:45;2.03;;;0.90;;
8421;SDS011;4248;48.196;10.924;2024-03-23T10:46:12;2.07;;;1.03;;
8421;SDS011;4248;48.196;10.924;2024-03-23T10:48:38;2.50;;;1.10;;
8421;SDS011;4248;48.196;10.924;2024-03-23T10:51:05;2.00;;;1.03;;
8421;SDS011;4248;48.196;10.924;2024-03-23T10:53:33;3.00;;;1.10;;
8421;SDS011;4248;48.196;10.924;2024-03-23T10:55:59;1.97;;;1.00;;
8421;SDS011;4248;48.196;10.924;2024-03-23T10:58:30;2.20;;;1.10;;
8421;SDS011;4248;48.196;10.924;2024-03-23T11:01:12;3.00;;;1.00;;
8421;SDS011;4248;48.196;10.924;2024-03-23T11:03:38;3.13;;;1.17;;
8421;SDS011;4248;48.196;10.924;2024-03-23T11:06:09;3.20;;;1.10;;
8421;SDS011;4248;48.196;10.924;2024-03-23T11:08:36;3.70;;;0.90;;
8421;SDS011;4248;48.196;10.924;2024-03-23T11:13:47;4.53;;;1.10;;
8421;SDS011;4248;48.196;10.924;2024-03-23T11:16:14;2.27;;;1.30;;
8421;SDS011;4248;48.196;10.924;2024-03-23T11:18:41;2.77;;;1.20;;
8421;SDS011;4248;48.196;10.924;2024-03-23T11:21:07;4.00;;;1.57;;
8421;SDS011;4248;48.196;10.924;2024-03-23T11:23:33;3.10;;;1.23;;
8421;SDS011;4248;48.196;10.924;2024-03-23T11:25:59;2.23;;;1.20;;
8421;SDS011;4248;48.196;10.924;2024-03-23T11:28:25;3.83;;;1.13;;
8421;SDS011;4248;48.196;10.924;2024-03-23T11:30:51;3.93;;;1.03;;
8421;SDS011;4248;48.196;10.924;2024-03-23T11:33:17;3.70;;;1.10;;
8421;SDS011;4248;48.196;10.924;2024-03-23T11:35:43;2.97;;;1.10;;
8421;SDS011;4248;48.196;10.924;2024-03-23T11:40:36;3.40;;;1.20;;
8421;SDS011;4248;48.196;10.924;2024-03-23T11:43:03;4.07;;;1.40;;
8421;SDS011;4248;48.196;10.924;2024-03-23T11:45:39;2.70;;;1.30;;
8421;SDS011;4248;48.196;10.924;2024-03-23T11:48:13;2.17;;;1.50;;
8421;SDS011;4248;48.196;10.924;2024-03-23T11:50:40;2.87;;;1.20;;
8421;SDS011;4248;48.196;10.924;2024-03-23T11:58:16;5.40;;;1.60;;
8421;SDS011;4248;48.196;10.924;2024-03-23T12:00:43;2.73;;;1.80;;
8421;SDS011;4248;48.196;10.924;2024-03-23T12:03:16;4.47;;;1.53;;
8421;SDS011;4248;48.196;10.924;2024-03-23T12:05:46;3.37;;;1.03;;
8421;SDS011;4248;48.196;10.924;2024-03-23T12:08:39;4.73;;;1.50;;
8421;SDS011;4248;48.196;10.924;2024-03-23T12:11:05;4.67;;;1.53;;
8421;SDS011;4248;48.196;10.924;2024-03-23T12:13:38;3.60;;;1.80;;
8421;SDS011;4248;48.196;10.924;2024-03-23T12:16:10;7.40;;;1.70;;
8421;SDS011;4248;48.196;10.924;2024-03-23T12:18:45;4.50;;;1.70;;
8421;SDS011;4248;48.196;10.924;2024-03-23T12:21:12;5.87;;;1.57;;
8421;SDS011;4248;48.196;10.924;2024-03-23T12:23:39;4.07;;;1.73;;
8421;SDS011;4248;48.196;10.924;2024-03-23T12:26:05;5.97;;;2.00;;
8421;SDS011;4248;48.196;10.924;2024-03-23T12:28:31;10.00;;;2.20;;
8421;SDS011;4248;48.196;10.924;2024-03-23T12:30:57;3.20;;;1.30;;
8421;SDS011;4248;48.196;10.924;2024-03-23T12:33:23;3.43;;;1.80;;
8421;SDS011;4248;48.196;10.924;2024-03-23T12:35:49;7.40;;;2.20;;
8421;SDS011;4248;48.196;10.924;2024-03-23T12:38:16;5.43;;;1.97;;
8421;SDS011;4248;48.196;10.924;2024-03-23T12:40:42;5.77;;;2.17;;
8421;SDS011;4248;48.196;10.924;2024-03-23T12:43:12;5.73;;;2.40;;
8421;SDS011;4248;48.196;10.924;2024-03-23T12:45:38;4.30;;;2.20;;
8421;SDS011;4248;48.196;10.924;2024-03-23T12:48:04;5.97;;;2.20;;
8421;SDS011;4248;48.196;10.924;2024-03-23T12:50:30;5.90;;;2.83;;
8421;SDS011;4248;48.196;10.924;2024-03-23T12:52:56;5.83;;;2.73;;
8421;SDS011;4248;48.196;10.924;2024-03-23T12:55:21;4.73;;;1.90;;
8421;SDS011;4248;48.196;10.924;2024-03-23T12:57:47;4.20;;;1.80;;
8421;SDS011;4248;48.196;10.924;2024-03-23T13:00:14;4.37;;;2.27;;
8421;SDS011;4248;48.196;10.924;2024-03-23T13:02:41;10.83;;;1.70;;
8421;SDS011;4248;48.196;10.924;2024-03-23T13:05:07;6.73;;;2.33;;
8421;SDS011;4248;48.196;10.924;2024-03-23T13:07:36;5.20;;;2.17;;
8421;SDS011;4248;48.196;10.924;2024-03-23T13:10:03;7.50;;;2.13;;
8421;SDS011;4248;48.196;10.924;2024-03-23T13:12:30;7.10;;;2.17;;
8421;SDS011;4248;48.196;10.924;2024-03-23T13:14:56;4.67;;;1.63;;
8421;SDS011;4248;48.196;10.924;2024-03-23T13:17:22;4.63;;;2.27;;
8421;SDS011;4248;48.196;10.924;2024-03-23T13:19:48;7.63;;;1.50;;
8421;SDS011;4248;48.196;10.924;2024-03-23T13:22:13;3.70;;;1.57;;
8421;SDS011;4248;48.196;10.924;2024-03-23T13:24:39;4.10;;;1.40;;
8421;SDS011;4248;48.196;10.924;2024-03-23T13:27:05;4.10;;;1.47;;
8421;SDS011;4248;48.196;10.924;2024-03-23T13:29:32;2.97;;;1.10;;
8421;SDS011;4248;48.196;10.924;2024-03-23T13:31:59;11.33;;;1.63;;
8421;SDS011;4248;48.196;10.924;2024-03-23T13:34:25;3.40;;;1.10;;
8421;SDS011;4248;48.196;10.924;2024-03-23T13:36:51;3.33;;;1.20;;
8421;SDS011;4248;48.196;10.924;2024-03-23T13:39:17;3.87;;;1.30;;
8421;SDS011;4248;48.196;10.924;2024-03-23T13:41:43;4.40;;;1.53;;
8421;SDS011;4248;48.196;10.924;2024-03-23T13:44:10;1.87;;;1.10;;
8421;SDS011;4248;48.196;10.924;2024-03-23T13:46:37;3.30;;;1.30;;
8421;SDS011;4248;48.196;10.924;2024-03-23T13:49:03;4.53;;;1.23;;
8421;SDS011;4248;48.196;10.924;2024-03-23T13:51:32;3.40;;;1.50;;
8421;SDS011;4248;48.196;10.924;2024-03-23T13:53:58;4.77;;;1.07;;
8421;SDS011;4248;48.196;10.924;2024-03-23T13:56:27;4.90;;;1.50;;
8421;SDS011;4248;48.196;10.924;2024-03-23T13:58:56;9.50;;;1.53;;
8421;SDS011;4248;48.196;10.924;2024-03-23T14:01:23;2.97;;;1.30;;
8421;SDS011;4248;48.196;10.924;2024-03-23T14:03:49;9.90;;;1.47;;
8421;SDS011;4248;48.196;10.924;2024-03-23T14:06:15;4.43;;;1.50;;
8421;SDS011;4248;48.196;10.924;2024-03-23T14:08:41;3.20;;;1.20;;
8421;SDS011;4248;48.196;10.924;2024-03-23T14:11:08;4.13;;;1.00;;
8421;SDS011;4248;48.196;10.924;2024-03-23T14:13:34;4.63;;;1.47;;
8421;SDS011;4248;48.196;10.924;2024-03-23T14:16:00;8.20;;;1.30;;
8421;SDS011;4248;48.196;10.924;2024-03-23T14:18:26;2.90;;;1.37;;
8421;SDS011;4248;48.196;10.924;2024-03-23T14:20:55;2.33;;;1.10;;
8421;SDS011;4248;48.196;10.924;2024-03-23T14:23:25;6.50;;;1.37;;
8421;SDS011;4248;48.196;10.924;2024-03-23T14:25:54;4.00;;;1.27;;
8421;SDS011;4248;48.196;10.924;2024-03-23T14:28:21;2.80;;;1.30;;
8421;SDS011;4248;48.196;10.924;2024-03-23T14:30:47;2.60;;;1.23;;
8421;SDS011;4248;48.196;10.924;2024-03-23T14:33:14;7.03;;;1.83;;
8421;SDS011;4248;48.196;10.924;2024-03-23T14:35:40;3.90;;;1.40;;
8421;SDS011;4248;48.196;10.924;2024-03-23T14:38:06;3.50;;;1.37;;
8421;SDS011;4248;48.196;10.924;2024-03-23T14:40:32;2.40;;;1.30;;
8421;SDS011;4248;48.196;10.924;2024-03-23T14:42:58;3.43;;;1.60;;
8421;SDS011;4248;48.196;10.924;2024-03-23T14:45:24;2.93;;;1.30;;
8421;SDS011;4248;48.196;10.924;2024-03-23T14:47:51;3.03;;;1.10;;
8421;SDS011;4248;48.196;10.924;2024-03-23T14:50:16;4.10;;;1.70;;
8421;SDS011;4248;48.196;10.924;2024-03-23T14:52:45;8.30;;;1.70;;
8421;SDS011;4248;48.196;10.924;2024-03-23T14:55:11;5.93;;;1.67;;
8421;SDS011;4248;48.196;10.924;2024-03-23T14:57:37;4.43;;;1.80;;
8421;SDS011;4248;48.196;10.924;2024-03-23T15:00:05;4.30;;;1.63;;
8421;SDS011;4248;48.196;10.924;2024-03-23T15:02:32;5.10;;;1.80;;
8421;SDS011;4248;48.196;10.924;2024-03-23T15:04:59;5.93;;;1.90;;
8421;SDS011;4248;48.196;10.924;2024-03-23T15:07:25;7.90;;;1.90;;
8421;SDS011;4248;48.196;10.924;2024-03-23T15:09:53;4.00;;;1.30;;
8421;SDS011;4248;48.196;10.924;2024-03-23T15:12:19;5.50;;;1.90;;
8421;SDS011;4248;48.196;10.924;2024-03-23T15:14:44;5.37;;;1.70;;
8421;SDS011;4248;48.196;10.924;2024-03-23T15:17:11;3.03;;;1.80;;
8421;SDS011;4248;48.196;10.924;2024-03-23T15:19:37;4.40;;;1.50;;
8421;SDS011;4248;48.196;10.924;2024-03-23T15:22:03;11.70;;;1.83;;
8421;SDS011;4248;48.196;10.924;2024-03-23T15:24:29;3.13;;;1.47;;
8421;SDS011;4248;48.196;10.924;2024-03-23T15:26:55;4.77;;;1.30;;
8421;SDS011;4248;48.196;10.924;2024-03-23T15:29:21;5.47;;;1.63;;
8421;SDS011;4248;48.196;10.924;2024-03-23T15:31:48;12.50;;;2.00;;
8421;SDS011;4248;48.196;10.924;2024-03-23T15:34:17;5.03;;;1.60;;
8421;SDS011;4248;48.196;10.924;2024-03-23T15:36:44;11.53;;;1.63;;
8421;SDS011;4248;48.196;10.924;2024-03-23T15:39:10;10.30;;;1.70;;
8421;SDS011;4248;48.196;10.924;2024-03-23T15:41:38;5.93;;;1.57;;
8421;SDS011;4248;48.196;10.924;2024-03-23T15:44:04;7.97;;;1.60;;
8421;SDS011;4248;48.196;10.924;2024-03-23T15:46:30;3.40;;;1.57;;
8421;SDS011;4248;48.196;10.924;2024-03-23T15:48:56;5.27;;;1.93;;
8421;SDS011;4248;48.196;10.924;2024-03-23T15:51:22;6.60;;;1.60;;
8421;SDS011;4248;48.196;10.924;2024-03-23T15:53:48;3.90;;;1.37;;
8421;SDS011;4248;48.196;10.924;2024-03-23T15:56:17;5.80;;;1.90;;
8421;SDS011;4248;48.196;10.924;2024-03-23T15:58:43;2.73;;;1.20;;
8421;SDS011;4248;48.196;10.924;2024-03-23T16:01:09;5.90;;;1.27;;
8421;SDS011;4248;48.196;10.924;2024-03-23T16:03:35;4.93;;;1.63;;
8421;SDS011;4248;48.196;10.924;2024-03-23T16:06:02;5.47;;;1.27;;
8421;SDS011;4248;48.196;10.924;2024-03-23T16:08:29;3.60;;;1.30;;